sensor_id;sensor_type;location;lat;lon;timestamp;temperature;humidity
48488;DHT22;34289;48.572;13.378;2023-03-19T00:02:14;2.90;99.90
48488;DHT22;34289;48.572;13.378;2023-03-19T00:04:40;2.80;99.90
48488;DHT22;34289;48.572;13.378;2023-03-19T00:07:07;2.80;99.90
48488;DHT22;34289;48.572;13.378;2023-03-19T00:09:33;2.70;99.90
48488;DHT22;34289;48.572;13.378;2023-03-19T00:11:58;4.90;99.90
48488;DHT22;34289;48.572;13.378;2023-03-19T00:14:24;4.50;99.90
48488;DHT22;34289;48.572;13.378;2023-03-19T00:16:50;3.80;99.90
48488;DHT22;34289;48.572;13.378;2023-03-19T00:19:16;4.80;99.90
48488;DHT22;34289;48.572;13.378;2023-03-19T00:21:42;4.80;99.90
48488;DHT22;34289;48.572;13.378;2023-03-19T00:24:08;3.90;99.90
48488;DHT22;34289;48.572;13.378;2023-03-19T00:26:35;2.90;99.90
48488;DHT22;34289;48.572;13.378;2023-03-19T00:29:01;3.60;99.90
48488;DHT22;34289;48.572;13.378;2023-03-19T00:31:28;4.50;99.90
48488;DHT22;34289;48.572;13.378;2023-03-19T00:33:56;3.70;99.90
48488;DHT22;34289;48.572;13.378;2023-03-19T00:36:23;4.70;99.90
48488;DHT22;34289;48.572;13.378;2023-03-19T00:38:49;2.90;99.90
48488;DHT22;34289;48.572;13.378;2023-03-19T00:41:16;2.80;99.90
48488;DHT22;34289;48.572;13.378;2023-03-19T00:43:42;2.60;99.90
48488;DHT22;34289;48.572;13.378;2023-03-19T00:46:08;2.60;99.90
48488;DHT22;34289;48.572;13.378;2023-03-19T00:48:34;2.70;99.90
48488;DHT22;34289;48.572;13.378;2023-03-19T00:51:08;2.80;99.90
48488;DHT22;34289;48.572;13.378;2023-03-19T00:53:38;2.80;99.90
48488;DHT22;34289;48.572;13.378;2023-03-19T00:56:05;4.50;99.90
48488;DHT22;34289;48.572;13.378;2023-03-19T00:58:32;3.40;99.90
48488;DHT22;34289;48.572;13.378;2023-03-19T01:00:57;4.50;99.90
48488;DHT22;34289;48.572;13.378;2023-03-19T01:03:23;2.80;99.90
48488;DHT22;34289;48.572;13.378;2023-03-19T01:05:49;4.60;99.90
48488;DHT22;34289;48.572;13.378;2023-03-19T01:08:16;2.30;99.90
48488;DHT22;34289;48.572;13.378;2023-03-19T01:10:42;2.30;99.90
48488;DHT22;34289;48.572;13.378;2023-03-19T01:13:08;2.50;99.90
48488;DHT22;34289;48.572;13.378;2023-03-19T01:15:35;2.70;99.90
48488;DHT22;34289;48.572;13.378;2023-03-19T01:18:01;2.60;99.90
48488;DHT22;34289;48.572;13.378;2023-03-19T01:20:27;2.70;99.90
48488;DHT22;34289;48.572;13.378;2023-03-19T01:22:53;3.70;99.90
48488;DHT22;34289;48.572;13.378;2023-03-19T01:25:18;2.10;99.90
48488;DHT22;34289;48.572;13.378;2023-03-19T01:27:44;3.80;99.90
48488;DHT22;34289;48.572;13.378;2023-03-19T01:30:11;2.60;99.90
48488;DHT22;34289;48.572;13.378;2023-03-19T01:32:36;2.20;99.90
48488;DHT22;34289;48.572;13.378;2023-03-19T01:35:02;2.70;99.90
48488;DHT22;34289;48.572;13.378;2023-03-19T01:37:27;2.00;99.90
48488;DHT22;34289;48.572;13.378;2023-03-19T01:39:53;2.20;99.90
48488;DHT22;34289;48.572;13.378;2023-03-19T01:42:19;2.40;99.90
48488;DHT22;34289;48.572;13.378;2023-03-19T01:44:45;4.30;99.90
48488;DHT22;34289;48.572;13.378;2023-03-19T01:47:18;2.30;99.90
48488;DHT22;34289;48.572;13.378;2023-03-19T01:49:47;3.00;99.90
48488;DHT22;34289;48.572;13.378;2023-03-19T01:52:15;2.30;99.90
48488;DHT22;34289;48.572;13.378;2023-03-19T01:54:41;2.30;99.90
48488;DHT22;34289;48.572;13.378;2023-03-19T01:57:10;2.20;99.90
48488;DHT22;34289;48.572;13.378;2023-03-19T01:59:39;2.10;99.90
48488;DHT22;34289;48.572;13.378;2023-03-19T02:04:38;2.30;99.90
48488;DHT22;34289;48.572;13.378;2023-03-19T02:07:05;2.40;99.90
48488;DHT22;34289;48.572;13.378;2023-03-19T02:09:32;2.40;99.90
48488;DHT22;34289;48.572;13.378;2023-03-19T02:11:59;2.20;99.90
48488;DHT22;34289;48.572;13.378;2023-03-19T02:14:26;2.00;99.90
48488;DHT22;34289;48.572;13.378;2023-03-19T02:16:53;1.80;99.90
48488;DHT22;34289;48.572;13.378;2023-03-19T02:22:19;2.20;99.90
48488;DHT22;34289;48.572;13.378;2023-03-19T02:25:01;2.30;99.90
48488;DHT22;34289;48.572;13.378;2023-03-19T02:27:27;2.10;99.90
48488;DHT22;34289;48.572;13.378;2023-03-19T02:29:53;1.80;99.90
48488;DHT22;34289;48.572;13.378;2023-03-19T02:32:19;1.80;99.90
48488;DHT22;34289;48.572;13.378;2023-03-19T02:34:44;1.80;99.90
48488;DHT22;34289;48.572;13.378;2023-03-19T02:37:20;1.60;99.90
48488;DHT22;34289;48.572;13.378;2023-03-19T02:42:20;1.50;99.90
48488;DHT22;34289;48.572;13.378;2023-03-19T02:44:47;1.30;99.90
48488;DHT22;34289;48.572;13.378;2023-03-19T02:47:13;1.40;99.90
48488;DHT22;34289;48.572;13.378;2023-03-19T02:49:39;1.40;99.90
48488;DHT22;34289;48.572;13.378;2023-03-19T02:52:04;1.50;99.90
48488;DHT22;34289;48.572;13.378;2023-03-19T02:54:30;1.50;99.90
48488;DHT22;34289;48.572;13.378;2023-03-19T02:56:56;1.50;99.90
48488;DHT22;34289;48.572;13.378;2023-03-19T02:59:22;1.50;99.90
48488;DHT22;34289;48.572;13.378;2023-03-19T03:01:47;1.70;99.90
48488;DHT22;34289;48.572;13.378;2023-03-19T03:04:13;1.80;99.90
48488;DHT22;34289;48.572;13.378;2023-03-19T03:06:41;1.50;99.90
48488;DHT22;34289;48.572;13.378;2023-03-19T03:09:08;1.50;99.90
48488;DHT22;34289;48.572;13.378;2023-03-19T03:11:34;1.60;99.90
48488;DHT22;34289;48.572;13.378;2023-03-19T03:14:00;1.60;99.90
48488;DHT22;34289;48.572;13.378;2023-03-19T03:16:26;1.40;99.90
48488;DHT22;34289;48.572;13.378;2023-03-19T03:18:51;1.30;99.90
48488;DHT22;34289;48.572;13.378;2023-03-19T03:21:17;1.50;99.90
48488;DHT22;34289;48.572;13.378;2023-03-19T03:23:46;1.50;99.90
48488;DHT22;34289;48.572;13.378;2023-03-19T03:26:13;1.40;99.90
48488;DHT22;34289;48.572;13.378;2023-03-19T03:28:39;1.70;99.90
48488;DHT22;34289;48.572;13.378;2023-03-19T03:31:05;1.80;99.90
48488;DHT22;34289;48.572;13.378;2023-03-19T03:33:30;1.80;99.90
48488;DHT22;34289;48.572;13.378;2023-03-19T03:35:57;1.60;99.90
48488;DHT22;34289;48.572;13.378;2023-03-19T03:38:23;1.40;99.90
48488;DHT22;34289;48.572;13.378;2023-03-19T03:40:51;1.30;99.90
48488;DHT22;34289;48.572;13.378;2023-03-19T03:43:18;1.20;99.90
48488;DHT22;34289;48.572;13.378;2023-03-19T03:45:46;1.30;99.90
48488;DHT22;34289;48.572;13.378;2023-03-19T03:48:12;1.20;99.90
48488;DHT22;34289;48.572;13.378;2023-03-19T03:50:38;1.20;99.90
48488;DHT22;34289;48.572;13.378;2023-03-19T03:53:04;1.30;99.90
48488;DHT22;34289;48.572;13.378;2023-03-19T03:55:30;1.30;99.90
48488;DHT22;34289;48.572;13.378;2023-03-19T03:57:56;1.10;99.90
48488;DHT22;34289;48.572;13.378;2023-03-19T04:00:22;1.00;99.90
48488;DHT22;34289;48.572;13.378;2023-03-19T04:02:48;0.90;99.90
48488;DHT22;34289;48.572;13.378;2023-03-19T04:05:14;0.80;99.90
48488;DHT22;34289;48.572;13.378;2023-03-19T04:07:40;0.80;99.90
48488;DHT22;34289;48.572;13.378;2023-03-19T04:10:08;1.00;99.90
48488;DHT22;34289;48.572;13.378;2023-03-19T04:12:38;1.20;99.90
48488;DHT22;34289;48.572;13.378;2023-03-19T04:15:07;1.20;99.90
48488;DHT22;34289;48.572;13.378;2023-03-19T04:17:33;1.30;99.90
48488;DHT22;34289;48.572;13.378;2023-03-19T04:20:00;1.30;99.90
48488;DHT22;34289;48.572;13.378;2023-03-19T04:22:26;1.10;99.90
48488;DHT22;34289;48.572;13.378;2023-03-19T04:24:52;0.70;99.90
48488;DHT22;34289;48.572;13.378;2023-03-19T04:27:17;0.50;99.90
48488;DHT22;34289;48.572;13.378;2023-03-19T04:29:43;0.60;99.90
48488;DHT22;34289;48.572;13.378;2023-03-19T04:32:08;0.80;99.90
48488;DHT22;34289;48.572;13.378;2023-03-19T04:34:34;1.00;99.90
48488;DHT22;34289;48.572;13.378;2023-03-19T04:37:00;1.10;99.90
48488;DHT22;34289;48.572;13.378;2023-03-19T04:39:26;1.30;99.90
48488;DHT22;34289;48.572;13.378;2023-03-19T04:41:52;1.20;99.90
48488;DHT22;34289;48.572;13.378;2023-03-19T04:44:18;1.10;99.90
48488;DHT22;34289;48.572;13.378;2023-03-19T04:46:44;1.00;99.90
48488;DHT22;34289;48.572;13.378;2023-03-19T04:49:11;1.20;99.90
48488;DHT22;34289;48.572;13.378;2023-03-19T04:51:37;1.50;99.90
48488;DHT22;34289;48.572;13.378;2023-03-19T04:54:02;1.50;99.90
48488;DHT22;34289;48.572;13.378;2023-03-19T04:56:30;1.20;99.90
48488;DHT22;34289;48.572;13.378;2023-03-19T04:58:56;0.80;99.90
48488;DHT22;34289;48.572;13.378;2023-03-19T05:01:22;0.50;99.90
48488;DHT22;34289;48.572;13.378;2023-03-19T05:03:48;0.40;99.90
48488;DHT22;34289;48.572;13.378;2023-03-19T05:06:13;0.50;99.90
48488;DHT22;34289;48.572;13.378;2023-03-19T05:08:39;0.70;99.90
48488;DHT22;34289;48.572;13.378;2023-03-19T05:11:04;0.90;99.90
48488;DHT22;34289;48.572;13.378;2023-03-19T05:13:30;0.90;99.90
48488;DHT22;34289;48.572;13.378;2023-03-19T05:15:56;0.90;99.90
48488;DHT22;34289;48.572;13.378;2023-03-19T05:18:22;0.90;99.90
48488;DHT22;34289;48.572;13.378;2023-03-19T05:20:48;1.00;99.90
48488;DHT22;34289;48.572;13.378;2023-03-19T05:23:14;1.10;99.90
48488;DHT22;34289;48.572;13.378;2023-03-19T05:25:39;1.10;99.90
48488;DHT22;34289;48.572;13.378;2023-03-19T05:28:05;1.00;99.90
48488;DHT22;34289;48.572;13.378;2023-03-19T05:30:32;1.00;99.90
48488;DHT22;34289;48.572;13.378;2023-03-19T05:32:58;0.80;99.90
48488;DHT22;34289;48.572;13.378;2023-03-19T05:35:26;0.50;99.90
48488;DHT22;34289;48.572;13.378;2023-03-19T05:37:52;0.40;99.90
48488;DHT22;34289;48.572;13.378;2023-03-19T05:40:19;0.50;99.90
48488;DHT22;34289;48.572;13.378;2023-03-19T05:42:45;0.80;99.90
48488;DHT22;34289;48.572;13.378;2023-03-19T05:45:11;0.90;99.90
48488;DHT22;34289;48.572;13.378;2023-03-19T05:47:36;1.20;99.90
48488;DHT22;34289;48.572;13.378;2023-03-19T05:50:04;1.30;99.90
48488;DHT22;34289;48.572;13.378;2023-03-19T05:52:30;1.40;99.90
48488;DHT22;34289;48.572;13.378;2023-03-19T05:54:56;1.40;99.90
48488;DHT22;34289;48.572;13.378;2023-03-19T05:57:21;1.30;99.90
48488;DHT22;34289;48.572;13.378;2023-03-19T05:59:47;1.60;99.90
48488;DHT22;34289;48.572;13.378;2023-03-19T06:02:12;1.70;99.90
48488;DHT22;34289;48.572;13.378;2023-03-19T06:04:38;1.90;99.90
48488;DHT22;34289;48.572;13.378;2023-03-19T06:07:04;1.90;99.90
48488;DHT22;34289;48.572;13.378;2023-03-19T06:09:30;1.90;99.90
48488;DHT22;34289;48.572;13.378;2023-03-19T06:11:56;2.00;99.90
48488;DHT22;34289;48.572;13.378;2023-03-19T06:14:22;2.30;99.90
48488;DHT22;34289;48.572;13.378;2023-03-19T06:16:47;2.50;99.90
48488;DHT22;34289;48.572;13.378;2023-03-19T06:19:13;2.60;99.90
48488;DHT22;34289;48.572;13.378;2023-03-19T06:21:38;2.50;99.90
48488;DHT22;34289;48.572;13.378;2023-03-19T06:24:04;2.50;99.90
48488;DHT22;34289;48.572;13.378;2023-03-19T06:26:30;2.70;99.90
48488;DHT22;34289;48.572;13.378;2023-03-19T06:28:56;2.70;99.90
48488;DHT22;34289;48.572;13.378;2023-03-19T06:31:22;2.60;99.90
48488;DHT22;34289;48.572;13.378;2023-03-19T06:33:47;2.90;99.90
48488;DHT22;34289;48.572;13.378;2023-03-19T06:36:14;2.80;99.90
48488;DHT22;34289;48.572;13.378;2023-03-19T06:38:40;2.50;99.90
48488;DHT22;34289;48.572;13.378;2023-03-19T06:41:06;2.40;99.90
48488;DHT22;34289;48.572;13.378;2023-03-19T06:43:31;4.10;99.90
48488;DHT22;34289;48.572;13.378;2023-03-19T06:46:04;2.30;99.90
48488;DHT22;34289;48.572;13.378;2023-03-19T06:48:29;2.60;99.90
48488;DHT22;34289;48.572;13.378;2023-03-19T06:50:55;2.90;99.90
48488;DHT22;34289;48.572;13.378;2023-03-19T06:53:21;3.30;99.90
48488;DHT22;34289;48.572;13.378;2023-03-19T06:55:46;3.60;99.90
48488;DHT22;34289;48.572;13.378;2023-03-19T06:58:12;3.50;99.90
48488;DHT22;34289;48.572;13.378;2023-03-19T07:00:37;3.90;99.90
48488;DHT22;34289;48.572;13.378;2023-03-19T07:03:03;4.00;99.90
48488;DHT22;34289;48.572;13.378;2023-03-19T07:05:29;4.00;99.90
48488;DHT22;34289;48.572;13.378;2023-03-19T07:07:54;5.50;99.90
48488;DHT22;34289;48.572;13.378;2023-03-19T07:10:20;5.50;99.90
48488;DHT22;34289;48.572;13.378;2023-03-19T07:12:47;4.80;99.90
48488;DHT22;34289;48.572;13.378;2023-03-19T07:15:13;5.80;99.90
48488;DHT22;34289;48.572;13.378;2023-03-19T07:17:39;6.60;99.90
48488;DHT22;34289;48.572;13.378;2023-03-19T07:20:05;6.50;99.90
48488;DHT22;34289;48.572;13.378;2023-03-19T07:22:31;7.30;99.90
48488;DHT22;34289;48.572;13.378;2023-03-19T07:24:57;8.60;99.90
48488;DHT22;34289;48.572;13.378;2023-03-19T07:27:22;8.10;99.90
48488;DHT22;34289;48.572;13.378;2023-03-19T07:29:48;8.50;99.90
48488;DHT22;34289;48.572;13.378;2023-03-19T07:32:14;8.90;99.90
48488;DHT22;34289;48.572;13.378;2023-03-19T07:34:40;9.20;99.90
48488;DHT22;34289;48.572;13.378;2023-03-19T07:37:06;9.60;99.90
48488;DHT22;34289;48.572;13.378;2023-03-19T07:39:31;9.90;99.90
48488;DHT22;34289;48.572;13.378;2023-03-19T07:41:57;10.00;99.90
48488;DHT22;34289;48.572;13.378;2023-03-19T07:44:23;10.40;99.90
48488;DHT22;34289;48.572;13.378;2023-03-19T07:46:48;10.30;99.90
48488;DHT22;34289;48.572;13.378;2023-03-19T07:49:14;11.50;99.90
48488;DHT22;34289;48.572;13.378;2023-03-19T07:51:39;10.60;99.90
48488;DHT22;34289;48.572;13.378;2023-03-19T07:54:05;10.90;99.90
48488;DHT22;34289;48.572;13.378;2023-03-19T07:56:31;11.20;99.90
48488;DHT22;34289;48.572;13.378;2023-03-19T07:58:56;11.50;99.90
48488;DHT22;34289;48.572;13.378;2023-03-19T08:01:24;11.80;99.90
48488;DHT22;34289;48.572;13.378;2023-03-19T08:03:50;12.10;99.90
48488;DHT22;34289;48.572;13.378;2023-03-19T08:06:15;12.10;99.90
48488;DHT22;34289;48.572;13.378;2023-03-19T08:08:41;12.60;99.90
48488;DHT22;34289;48.572;13.378;2023-03-19T08:11:07;12.70;99.90
48488;DHT22;34289;48.572;13.378;2023-03-19T08:13:33;12.60;99.90
48488;DHT22;34289;48.572;13.378;2023-03-19T08:15:59;12.30;99.90
48488;DHT22;34289;48.572;13.378;2023-03-19T08:18:25;11.80;99.90
48488;DHT22;34289;48.572;13.378;2023-03-19T08:20:51;11.30;99.90
48488;DHT22;34289;48.572;13.378;2023-03-19T08:23:17;11.50;99.90
48488;DHT22;34289;48.572;13.378;2023-03-19T08:25:43;11.70;99.90
48488;DHT22;34289;48.572;13.378;2023-03-19T08:28:08;12.40;99.90
48488;DHT22;34289;48.572;13.378;2023-03-19T08:30:35;12.80;99.90
48488;DHT22;34289;48.572;13.378;2023-03-19T08:33:01;13.20;99.90
48488;DHT22;34289;48.572;13.378;2023-03-19T08:35:27;13.30;99.90
48488;DHT22;34289;48.572;13.378;2023-03-19T08:37:54;13.20;99.90
48488;DHT22;34289;48.572;13.378;2023-03-19T08:40:20;12.70;99.90
48488;DHT22;34289;48.572;13.378;2023-03-19T08:42:46;12.00;99.90
48488;DHT22;34289;48.572;13.378;2023-03-19T08:45:13;11.90;99.90
48488;DHT22;34289;48.572;13.378;2023-03-19T08:47:39;12.80;99.90
48488;DHT22;34289;48.572;13.378;2023-03-19T08:50:05;13.30;99.90
48488;DHT22;34289;48.572;13.378;2023-03-19T08:52:31;13.70;99.90
48488;DHT22;34289;48.572;13.378;2023-03-19T08:54:57;13.30;99.90
48488;DHT22;34289;48.572;13.378;2023-03-19T08:57:23;13.50;99.90
48488;DHT22;34289;48.572;13.378;2023-03-19T08:59:49;13.00;99.90
48488;DHT22;34289;48.572;13.378;2023-03-19T09:02:16;13.00;99.90
48488;DHT22;34289;48.572;13.378;2023-03-19T09:04:42;13.20;99.90
48488;DHT22;34289;48.572;13.378;2023-03-19T09:07:09;13.60;99.90
48488;DHT22;34289;48.572;13.378;2023-03-19T09:09:41;13.90;99.90
48488;DHT22;34289;48.572;13.378;2023-03-19T09:12:09;14.00;99.90
48488;DHT22;34289;48.572;13.378;2023-03-19T09:14:35;14.40;99.90
48488;DHT22;34289;48.572;13.378;2023-03-19T09:17:02;14.80;99.90
48488;DHT22;34289;48.572;13.378;2023-03-19T09:19:28;14.90;99.90
48488;DHT22;34289;48.572;13.378;2023-03-19T09:21:53;15.20;99.90
48488;DHT22;34289;48.572;13.378;2023-03-19T09:24:20;15.20;99.90
48488;DHT22;34289;48.572;13.378;2023-03-19T09:26:45;15.20;99.90
48488;DHT22;34289;48.572;13.378;2023-03-19T09:29:12;14.60;99.90
48488;DHT22;34289;48.572;13.378;2023-03-19T09:31:38;14.10;99.90
48488;DHT22;34289;48.572;13.378;2023-03-19T09:34:04;13.70;99.90
48488;DHT22;34289;48.572;13.378;2023-03-19T09:36:31;13.50;99.90
48488;DHT22;34289;48.572;13.378;2023-03-19T09:38:57;13.70;99.90
48488;DHT22;34289;48.572;13.378;2023-03-19T09:41:26;14.10;99.90
48488;DHT22;34289;48.572;13.378;2023-03-19T09:44:10;14.80;99.90
48488;DHT22;34289;48.572;13.378;2023-03-19T09:46:41;15.60;99.90
48488;DHT22;34289;48.572;13.378;2023-03-19T09:49:29;15.60;99.90
48488;DHT22;34289;48.572;13.378;2023-03-19T09:54:59;16.40;99.90
48488;DHT22;34289;48.572;13.378;2023-03-19T09:57:28;16.30;99.30
48488;DHT22;34289;48.572;13.378;2023-03-19T09:59:57;16.20;98.40
48488;DHT22;34289;48.572;13.378;2023-03-19T10:02:41;16.80;99.60
48488;DHT22;34289;48.572;13.378;2023-03-19T10:05:27;17.20;97.60
48488;DHT22;34289;48.572;13.378;2023-03-19T10:13:51;16.50;96.50
48488;DHT22;34289;48.572;13.378;2023-03-19T10:16:21;17.50;96.60
48488;DHT22;34289;48.572;13.378;2023-03-19T10:18:50;17.10;96.70
48488;DHT22;34289;48.572;13.378;2023-03-19T10:21:27;17.40;96.20
48488;DHT22;34289;48.572;13.378;2023-03-19T10:26:30;17.60;96.00
48488;DHT22;34289;48.572;13.378;2023-03-19T10:29:05;17.50;97.10
48488;DHT22;34289;48.572;13.378;2023-03-19T10:31:51;17.10;96.60
48488;DHT22;34289;48.572;13.378;2023-03-19T10:34:30;16.60;97.40
48488;DHT22;34289;48.572;13.378;2023-03-19T10:37:00;15.70;97.60
48488;DHT22;34289;48.572;13.378;2023-03-19T10:39:26;15.30;98.10
48488;DHT22;34289;48.572;13.378;2023-03-19T10:42:04;15.10;98.90
48488;DHT22;34289;48.572;13.378;2023-03-19T10:44:41;14.70;99.00
48488;DHT22;34289;48.572;13.378;2023-03-19T10:47:11;14.60;99.90
48488;DHT22;34289;48.572;13.378;2023-03-19T10:49:37;14.70;99.90
48488;DHT22;34289;48.572;13.378;2023-03-19T10:52:03;14.80;99.90
48488;DHT22;34289;48.572;13.378;2023-03-19T10:54:29;14.90;99.80
48488;DHT22;34289;48.572;13.378;2023-03-19T10:56:59;15.40;99.90
48488;DHT22;34289;48.572;13.378;2023-03-19T11:02:06;16.00;98.50
48488;DHT22;34289;48.572;13.378;2023-03-19T11:04:38;16.00;98.20
48488;DHT22;34289;48.572;13.378;2023-03-19T11:07:18;16.20;97.90
48488;DHT22;34289;48.572;13.378;2023-03-19T11:09:49;15.70;99.10
48488;DHT22;34289;48.572;13.378;2023-03-19T11:12:21;15.50;98.90
48488;DHT22;34289;48.572;13.378;2023-03-19T11:14:53;15.60;98.90
48488;DHT22;34289;48.572;13.378;2023-03-19T11:17:27;15.80;99.30
48488;DHT22;34289;48.572;13.378;2023-03-19T11:19:55;16.10;98.40
48488;DHT22;34289;48.572;13.378;2023-03-19T11:22:31;16.30;98.90
48488;DHT22;34289;48.572;13.378;2023-03-19T11:25:18;16.00;99.70
48488;DHT22;34289;48.572;13.378;2023-03-19T11:28:02;15.50;98.70
48488;DHT22;34289;48.572;13.378;2023-03-19T11:30:40;15.10;98.90
48488;DHT22;34289;48.572;13.378;2023-03-19T11:35:56;15.90;99.30
48488;DHT22;34289;48.572;13.378;2023-03-19T11:38:29;16.50;97.70
48488;DHT22;34289;48.572;13.378;2023-03-19T11:44:17;17.30;97.90
48488;DHT22;34289;48.572;13.378;2023-03-19T11:47:39;17.50;98.20
48488;DHT22;34289;48.572;13.378;2023-03-19T11:52:24;17.90;96.00
48488;DHT22;34289;48.572;13.378;2023-03-19T11:55:10;18.00;95.50
48488;DHT22;34289;48.572;13.378;2023-03-19T12:19:26;16.00;96.90
48488;DHT22;34289;48.572;13.378;2023-03-19T12:28:25;16.40;97.10
48488;DHT22;34289;48.572;13.378;2023-03-19T12:33:10;16.60;97.90
48488;DHT22;34289;48.572;13.378;2023-03-19T12:35:40;16.60;97.30
48488;DHT22;34289;48.572;13.378;2023-03-19T12:40:56;16.70;98.30
48488;DHT22;34289;48.572;13.378;2023-03-19T12:43:37;16.70;98.00
48488;DHT22;34289;48.572;13.378;2023-03-19T12:46:23;16.50;98.60
48488;DHT22;34289;48.572;13.378;2023-03-19T12:48:53;16.40;99.50
48488;DHT22;34289;48.572;13.378;2023-03-19T12:51:25;16.40;98.40
48488;DHT22;34289;48.572;13.378;2023-03-19T12:54:09;16.30;99.60
48488;DHT22;34289;48.572;13.378;2023-03-19T12:56:45;16.30;99.50
48488;DHT22;34289;48.572;13.378;2023-03-19T12:59:37;16.20;99.20
48488;DHT22;34289;48.572;13.378;2023-03-19T13:04:56;16.10;97.80
48488;DHT22;34289;48.572;13.378;2023-03-19T13:07:46;15.90;98.10
48488;DHT22;34289;48.572;13.378;2023-03-19T13:10:20;15.80;98.50
48488;DHT22;34289;48.572;13.378;2023-03-19T13:12:49;15.70;98.60
48488;DHT22;34289;48.572;13.378;2023-03-19T13:15:20;15.60;99.00
48488;DHT22;34289;48.572;13.378;2023-03-19T13:18:18;15.70;98.80
48488;DHT22;34289;48.572;13.378;2023-03-19T13:23:13;15.70;99.90
48488;DHT22;34289;48.572;13.378;2023-03-19T13:25:44;15.80;99.90
48488;DHT22;34289;48.572;13.378;2023-03-19T13:28:22;15.90;99.90
48488;DHT22;34289;48.572;13.378;2023-03-19T13:33:27;16.10;99.90
48488;DHT22;34289;48.572;13.378;2023-03-19T13:35:55;16.40;99.90
48488;DHT22;34289;48.572;13.378;2023-03-19T13:38:35;16.60;99.90
48488;DHT22;34289;48.572;13.378;2023-03-19T13:41:02;16.80;99.90
48488;DHT22;34289;48.572;13.378;2023-03-19T13:53:43;16.80;99.90
48488;DHT22;34289;48.572;13.378;2023-03-19T13:56:16;17.10;99.90
48488;DHT22;34289;48.572;13.378;2023-03-19T13:58:46;17.30;99.90
48488;DHT22;34289;48.572;13.378;2023-03-19T14:03:56;17.50;99.90
48488;DHT22;34289;48.572;13.378;2023-03-19T14:06:44;17.70;99.40
48488;DHT22;34289;48.572;13.378;2023-03-19T14:14:58;17.60;99.10
48488;DHT22;34289;48.572;13.378;2023-03-19T14:28:44;17.20;99.90
48488;DHT22;34289;48.572;13.378;2023-03-19T14:31:53;16.90;99.90
48488;DHT22;34289;48.572;13.378;2023-03-19T14:34:32;16.70;99.90
48488;DHT22;34289;48.572;13.378;2023-03-19T14:37:02;16.50;99.90
48488;DHT22;34289;48.572;13.378;2023-03-19T14:39:31;16.40;99.90
48488;DHT22;34289;48.572;13.378;2023-03-19T14:42:18;16.30;99.90
48488;DHT22;34289;48.572;13.378;2023-03-19T14:53:43;16.50;99.90
48488;DHT22;34289;48.572;13.378;2023-03-19T14:56:14;16.40;99.90
48488;DHT22;34289;48.572;13.378;2023-03-19T14:58:52;16.50;99.90
48488;DHT22;34289;48.572;13.378;2023-03-19T15:01:18;16.50;99.90
48488;DHT22;34289;48.572;13.378;2023-03-19T15:03:45;16.50;99.90
48488;DHT22;34289;48.572;13.378;2023-03-19T15:06:14;16.50;99.90
48488;DHT22;34289;48.572;13.378;2023-03-19T15:08:41;16.50;99.90
48488;DHT22;34289;48.572;13.378;2023-03-19T15:16:30;16.20;99.90
48488;DHT22;34289;48.572;13.378;2023-03-19T15:18:57;16.10;99.90
48488;DHT22;34289;48.572;13.378;2023-03-19T15:21:23;15.90;99.90
48488;DHT22;34289;48.572;13.378;2023-03-19T15:23:49;15.80;99.90
48488;DHT22;34289;48.572;13.378;2023-03-19T15:26:15;15.60;99.90
48488;DHT22;34289;48.572;13.378;2023-03-19T15:28:52;15.50;99.90
48488;DHT22;34289;48.572;13.378;2023-03-19T15:31:18;15.40;99.90
48488;DHT22;34289;48.572;13.378;2023-03-19T15:33:44;15.20;99.90
48488;DHT22;34289;48.572;13.378;2023-03-19T15:36:30;15.20;99.90
48488;DHT22;34289;48.572;13.378;2023-03-19T15:39:06;15.10;99.90
48488;DHT22;34289;48.572;13.378;2023-03-19T15:41:37;15.00;99.90
48488;DHT22;34289;48.572;13.378;2023-03-19T15:44:09;15.00;99.90
48488;DHT22;34289;48.572;13.378;2023-03-19T15:46:39;15.00;99.90
48488;DHT22;34289;48.572;13.378;2023-03-19T15:51:35;14.90;99.90
48488;DHT22;34289;48.572;13.378;2023-03-19T15:54:01;14.80;99.90
48488;DHT22;34289;48.572;13.378;2023-03-19T15:56:27;14.70;99.90
48488;DHT22;34289;48.572;13.378;2023-03-19T15:58:55;14.70;99.90
48488;DHT22;34289;48.572;13.378;2023-03-19T16:01:22;14.70;99.90
48488;DHT22;34289;48.572;13.378;2023-03-19T16:08:53;14.60;99.90
48488;DHT22;34289;48.572;13.378;2023-03-19T16:11:36;14.60;99.90
48488;DHT22;34289;48.572;13.378;2023-03-19T16:14:14;14.50;99.90
48488;DHT22;34289;48.572;13.378;2023-03-19T16:16:46;14.50;99.90
48488;DHT22;34289;48.572;13.378;2023-03-19T16:19:34;14.50;99.90
48488;DHT22;34289;48.572;13.378;2023-03-19T16:22:12;14.50;99.90
48488;DHT22;34289;48.572;13.378;2023-03-19T16:24:40;14.40;99.90
48488;DHT22;34289;48.572;13.378;2023-03-19T16:27:14;14.30;99.90
48488;DHT22;34289;48.572;13.378;2023-03-19T16:29:46;14.20;99.90
48488;DHT22;34289;48.572;13.378;2023-03-19T16:32:21;14.10;99.90
48488;DHT22;34289;48.572;13.378;2023-03-19T16:35:10;14.00;99.90
48488;DHT22;34289;48.572;13.378;2023-03-19T16:37:49;13.90;99.90
48488;DHT22;34289;48.572;13.378;2023-03-19T16:42:51;13.60;99.90
48488;DHT22;34289;48.572;13.378;2023-03-19T16:45:28;13.50;99.90
48488;DHT22;34289;48.572;13.378;2023-03-19T16:47:59;13.40;99.90
48488;DHT22;34289;48.572;13.378;2023-03-19T16:50:38;13.40;99.90
48488;DHT22;34289;48.572;13.378;2023-03-19T16:53:21;13.20;99.90
48488;DHT22;34289;48.572;13.378;2023-03-19T16:55:47;13.10;99.90
48488;DHT22;34289;48.572;13.378;2023-03-19T16:58:18;13.00;99.90
48488;DHT22;34289;48.572;13.378;2023-03-19T17:00:45;12.80;99.90
48488;DHT22;34289;48.572;13.378;2023-03-19T17:03:14;12.70;99.90
48488;DHT22;34289;48.572;13.378;2023-03-19T17:05:41;13.00;99.90
48488;DHT22;34289;48.572;13.378;2023-03-19T17:08:06;12.50;99.90
48488;DHT22;34289;48.572;13.378;2023-03-19T17:10:34;12.40;99.90
48488;DHT22;34289;48.572;13.378;2023-03-19T17:13:01;12.40;99.90
48488;DHT22;34289;48.572;13.378;2023-03-19T17:15:38;12.40;99.90
48488;DHT22;34289;48.572;13.378;2023-03-19T17:18:18;12.40;99.90
48488;DHT22;34289;48.572;13.378;2023-03-19T17:20:53;12.20;99.90
48488;DHT22;34289;48.572;13.378;2023-03-19T17:23:20;12.00;99.90
48488;DHT22;34289;48.572;13.378;2023-03-19T17:25:50;11.80;99.90
48488;DHT22;34289;48.572;13.378;2023-03-19T17:28:15;11.70;99.90
48488;DHT22;34289;48.572;13.378;2023-03-19T17:30:41;11.70;99.90
48488;DHT22;34289;48.572;13.378;2023-03-19T17:33:20;11.80;99.90
48488;DHT22;34289;48.572;13.378;2023-03-19T17:35:47;11.60;99.90
48488;DHT22;34289;48.572;13.378;2023-03-19T17:38:14;11.30;99.90
48488;DHT22;34289;48.572;13.378;2023-03-19T17:40:41;11.30;99.90